sensor_id;sensor_type;location;lat;lon;timestamp;temperature;humidity
14006;DHT22;7078;51.542;7.314;2022-11-20T00:00:55;-1.60;99.90
14006;DHT22;7078;51.542;7.314;2022-11-20T00:03:21;-1.70;99.90
14006;DHT22;7078;51.542;7.314;2022-11-20T00:05:47;-1.70;99.90
14006;DHT22;7078;51.542;7.314;2022-11-20T00:08:13;-1.70;99.90
14006;DHT22;7078;51.542;7.314;2022-11-20T00:10:39;-1.70;99.90
14006;DHT22;7078;51.542;7.314;2022-11-20T00:13:06;-1.70;99.90
14006;DHT22;7078;51.542;7.314;2022-11-20T00:15:31;-1.70;99.90
14006;DHT22;7078;51.542;7.314;2022-11-20T00:17:57;-1.70;99.90
14006;DHT22;7078;51.542;7.314;2022-11-20T00:20:23;-1.70;99.90
14006;DHT22;7078;51.542;7.314;2022-11-20T00:22:49;-1.80;99.90
14006;DHT22;7078;51.542;7.314;2022-11-20T00:25:15;-1.70;99.90
14006;DHT22;7078;51.542;7.314;2022-11-20T00:27:40;-1.70;99.90
14006;DHT22;7078;51.542;7.314;2022-11-20T00:30:06;-1.60;99.90
14006;DHT22;7078;51.542;7.314;2022-11-20T00:32:32;-1.60;99.90
14006;DHT22;7078;51.542;7.314;2022-11-20T00:34:58;-1.50;99.90
14006;DHT22;7078;51.542;7.314;2022-11-20T00:37:23;-1.40;99.90
14006;DHT22;7078;51.542;7.314;2022-11-20T00:39:49;-1.30;99.90
14006;DHT22;7078;51.542;7.314;2022-11-20T00:42:14;-1.20;99.90
14006;DHT22;7078;51.542;7.314;2022-11-20T00:44:40;-1.20;99.90
14006;DHT22;7078;51.542;7.314;2022-11-20T00:47:05;-1.20;99.90
14006;DHT22;7078;51.542;7.314;2022-11-20T00:49:31;-1.10;99.90
14006;DHT22;7078;51.542;7.314;2022-11-20T00:51:56;-1.10;99.90
14006;DHT22;7078;51.542;7.314;2022-11-20T00:54:22;-1.00;99.90
14006;DHT22;7078;51.542;7.314;2022-11-20T00:56:47;-1.00;99.90
14006;DHT22;7078;51.542;7.314;2022-11-20T00:59:13;-0.90;99.90
14006;DHT22;7078;51.542;7.314;2022-11-20T01:01:38;-1.00;99.90
14006;DHT22;7078;51.542;7.314;2022-11-20T01:04:04;-0.90;99.90
14006;DHT22;7078;51.542;7.314;2022-11-20T01:06:33;-0.90;99.90
14006;DHT22;7078;51.542;7.314;2022-11-20T01:09:00;-0.90;99.90
14006;DHT22;7078;51.542;7.314;2022-11-20T01:11:28;-0.90;99.90
14006;DHT22;7078;51.542;7.314;2022-11-20T01:13:55;-1.00;99.90
14006;DHT22;7078;51.542;7.314;2022-11-20T01:16:26;-0.90;99.90
14006;DHT22;7078;51.542;7.314;2022-11-20T01:18:54;-1.00;99.90
14006;DHT22;7078;51.542;7.314;2022-11-20T01:21:23;-1.00;99.90
14006;DHT22;7078;51.542;7.314;2022-11-20T01:23:50;-1.10;99.90
14006;DHT22;7078;51.542;7.314;2022-11-20T01:26:19;-1.10;99.90
14006;DHT22;7078;51.542;7.314;2022-11-20T01:28:45;-1.10;99.90
14006;DHT22;7078;51.542;7.314;2022-11-20T01:31:26;-1.10;99.90
14006;DHT22;7078;51.542;7.314;2022-11-20T01:33:55;-1.10;99.90
14006;DHT22;7078;51.542;7.314;2022-11-20T01:36:23;-1.00;99.90
14006;DHT22;7078;51.542;7.314;2022-11-20T01:38:57;-1.00;99.90
14006;DHT22;7078;51.542;7.314;2022-11-20T01:41:24;-1.10;99.90
14006;DHT22;7078;51.542;7.314;2022-11-20T01:44:11;-1.10;99.90
14006;DHT22;7078;51.542;7.314;2022-11-20T01:46:42;-1.10;99.90
14006;DHT22;7078;51.542;7.314;2022-11-20T01:49:26;-1.10;99.90
14006;DHT22;7078;51.542;7.314;2022-11-20T01:52:05;-1.00;99.90
14006;DHT22;7078;51.542;7.314;2022-11-20T01:54:53;-1.00;99.90
14006;DHT22;7078;51.542;7.314;2022-11-20T01:57:21;-1.00;99.90
14006;DHT22;7078;51.542;7.314;2022-11-20T01:59:55;-0.90;99.90
14006;DHT22;7078;51.542;7.314;2022-11-20T02:02:21;-0.90;99.90
14006;DHT22;7078;51.542;7.314;2022-11-20T02:04:49;-0.90;99.90
14006;DHT22;7078;51.542;7.314;2022-11-20T02:07:17;-0.90;99.90
14006;DHT22;7078;51.542;7.314;2022-11-20T02:09:42;-0.90;99.90
14006;DHT22;7078;51.542;7.314;2022-11-20T02:12:08;-1.00;99.90
14006;DHT22;7078;51.542;7.314;2022-11-20T02:14:54;-1.00;99.90
14006;DHT22;7078;51.542;7.314;2022-11-20T02:17:19;-1.00;99.90
14006;DHT22;7078;51.542;7.314;2022-11-20T02:19:45;-0.90;99.90
14006;DHT22;7078;51.542;7.314;2022-11-20T02:22:16;-0.90;99.90
14006;DHT22;7078;51.542;7.314;2022-11-20T02:24:45;-0.90;99.90
14006;DHT22;7078;51.542;7.314;2022-11-20T02:27:13;-0.90;99.90
14006;DHT22;7078;51.542;7.314;2022-11-20T02:29:46;-0.90;99.90
14006;DHT22;7078;51.542;7.314;2022-11-20T02:32:30;-0.80;99.90
14006;DHT22;7078;51.542;7.314;2022-11-20T02:34:57;-0.70;99.90
14006;DHT22;7078;51.542;7.314;2022-11-20T02:37:23;-0.70;99.90
14006;DHT22;7078;51.542;7.314;2022-11-20T02:39:51;-0.60;99.90
14006;DHT22;7078;51.542;7.314;2022-11-20T02:42:17;-0.60;99.90
14006;DHT22;7078;51.542;7.314;2022-11-20T02:44:43;-0.60;99.90
14006;DHT22;7078;51.542;7.314;2022-11-20T02:47:09;-0.60;99.90
14006;DHT22;7078;51.542;7.314;2022-11-20T02:49:34;-0.60;99.90
14006;DHT22;7078;51.542;7.314;2022-11-20T02:52:00;-0.60;99.90
14006;DHT22;7078;51.542;7.314;2022-11-20T02:54:25;-0.60;99.90
14006;DHT22;7078;51.542;7.314;2022-11-20T02:56:51;-0.60;99.90
14006;DHT22;7078;51.542;7.314;2022-11-20T02:59:17;-0.60;99.90
14006;DHT22;7078;51.542;7.314;2022-11-20T03:01:42;-0.60;99.90
14006;DHT22;7078;51.542;7.314;2022-11-20T03:04:08;-0.70;99.90
14006;DHT22;7078;51.542;7.314;2022-11-20T03:06:34;-0.60;99.90
14006;DHT22;7078;51.542;7.314;2022-11-20T03:08:59;-0.70;99.90
14006;DHT22;7078;51.542;7.314;2022-11-20T03:11:25;-0.70;99.90
14006;DHT22;7078;51.542;7.314;2022-11-20T03:13:51;-0.70;99.90
14006;DHT22;7078;51.542;7.314;2022-11-20T03:16:19;-0.70;99.90
14006;DHT22;7078;51.542;7.314;2022-11-20T03:18:45;-0.80;99.90
14006;DHT22;7078;51.542;7.314;2022-11-20T03:21:12;-0.80;99.90
14006;DHT22;7078;51.542;7.314;2022-11-20T03:23:38;-0.80;99.90
14006;DHT22;7078;51.542;7.314;2022-11-20T03:26:12;-0.90;99.90
14006;DHT22;7078;51.542;7.314;2022-11-20T03:28:38;-1.00;99.90
14006;DHT22;7078;51.542;7.314;2022-11-20T03:31:09;-1.00;99.90
14006;DHT22;7078;51.542;7.314;2022-11-20T03:33:34;-1.10;99.90
14006;DHT22;7078;51.542;7.314;2022-11-20T03:36:07;-1.10;99.90
14006;DHT22;7078;51.542;7.314;2022-11-20T03:38:33;-1.20;99.90
14006;DHT22;7078;51.542;7.314;2022-11-20T03:41:10;-1.20;99.90
14006;DHT22;7078;51.542;7.314;2022-11-20T03:43:36;-1.20;99.90
14006;DHT22;7078;51.542;7.314;2022-11-20T03:46:02;-1.30;99.90
14006;DHT22;7078;51.542;7.314;2022-11-20T03:48:28;-1.10;99.90
14006;DHT22;7078;51.542;7.314;2022-11-20T03:51:08;-1.30;99.90
14006;DHT22;7078;51.542;7.314;2022-11-20T03:53:34;-1.30;99.90
14006;DHT22;7078;51.542;7.314;2022-11-20T03:56:00;-1.40;99.90
14006;DHT22;7078;51.542;7.314;2022-11-20T03:58:25;-1.40;99.90
14006;DHT22;7078;51.542;7.314;2022-11-20T04:00:51;-1.40;99.90
14006;DHT22;7078;51.542;7.314;2022-11-20T04:03:16;-1.50;99.90
14006;DHT22;7078;51.542;7.314;2022-11-20T04:05:42;-1.50;99.90
14006;DHT22;7078;51.542;7.314;2022-11-20T04:08:07;-1.40;99.90
14006;DHT22;7078;51.542;7.314;2022-11-20T04:10:33;-1.50;99.90
14006;DHT22;7078;51.542;7.314;2022-11-20T04:12:58;-1.40;99.90
14006;DHT22;7078;51.542;7.314;2022-11-20T04:15:24;-1.40;99.90
14006;DHT22;7078;51.542;7.314;2022-11-20T04:17:49;-1.50;99.90
14006;DHT22;7078;51.542;7.314;2022-11-20T04:20:15;-1.50;99.90
14006;DHT22;7078;51.542;7.314;2022-11-20T04:22:41;-1.50;99.90
14006;DHT22;7078;51.542;7.314;2022-11-20T04:25:06;-1.50;99.90
14006;DHT22;7078;51.542;7.314;2022-11-20T04:27:32;-1.60;99.90
14006;DHT22;7078;51.542;7.314;2022-11-20T04:29:58;-1.60;99.90
14006;DHT22;7078;51.542;7.314;2022-11-20T04:32:23;-1.60;99.90
14006;DHT22;7078;51.542;7.314;2022-11-20T04:34:49;-1.60;99.90
14006;DHT22;7078;51.542;7.314;2022-11-20T04:37:14;-1.70;99.90
14006;DHT22;7078;51.542;7.314;2022-11-20T04:39:40;-1.70;99.90
14006;DHT22;7078;51.542;7.314;2022-11-20T04:42:05;-1.60;99.90
14006;DHT22;7078;51.542;7.314;2022-11-20T04:44:49;-1.70;99.90
14006;DHT22;7078;51.542;7.314;2022-11-20T04:47:15;-1.60;99.90
14006;DHT22;7078;51.542;7.314;2022-11-20T04:49:40;-1.60;99.90
14006;DHT22;7078;51.542;7.314;2022-11-20T04:52:06;-1.60;99.90
14006;DHT22;7078;51.542;7.314;2022-11-20T04:54:32;-1.60;99.90
14006;DHT22;7078;51.542;7.314;2022-11-20T04:56:57;-1.50;99.90
14006;DHT22;7078;51.542;7.314;2022-11-20T04:59:23;-1.40;99.90
14006;DHT22;7078;51.542;7.314;2022-11-20T05:01:48;-1.30;99.90
14006;DHT22;7078;51.542;7.314;2022-11-20T05:04:14;-1.20;99.90
14006;DHT22;7078;51.542;7.314;2022-11-20T05:06:39;-1.20;99.90
14006;DHT22;7078;51.542;7.314;2022-11-20T05:09:05;-1.10;99.90
14006;DHT22;7078;51.542;7.314;2022-11-20T05:11:31;-1.10;99.90
14006;DHT22;7078;51.542;7.314;2022-11-20T05:13:58;-1.10;99.90
14006;DHT22;7078;51.542;7.314;2022-11-20T05:16:24;-1.00;99.90
14006;DHT22;7078;51.542;7.314;2022-11-20T05:18:52;-0.90;99.90
14006;DHT22;7078;51.542;7.314;2022-11-20T05:21:19;-0.90;99.90
14006;DHT22;7078;51.542;7.314;2022-11-20T05:23:46;-0.80;99.90
14006;DHT22;7078;51.542;7.314;2022-11-20T05:26:22;-0.80;99.90
14006;DHT22;7078;51.542;7.314;2022-11-20T05:28:49;-0.80;99.90
14006;DHT22;7078;51.542;7.314;2022-11-20T05:31:18;-0.80;99.90
14006;DHT22;7078;51.542;7.314;2022-11-20T05:33:44;-0.80;99.90
14006;DHT22;7078;51.542;7.314;2022-11-20T05:36:11;-0.80;99.90
14006;DHT22;7078;51.542;7.314;2022-11-20T05:38:37;-0.80;99.90
14006;DHT22;7078;51.542;7.314;2022-11-20T05:41:18;-0.70;99.90
14006;DHT22;7078;51.542;7.314;2022-11-20T05:43:45;-0.70;99.90
14006;DHT22;7078;51.542;7.314;2022-11-20T05:46:13;-0.70;99.90
14006;DHT22;7078;51.542;7.314;2022-11-20T05:48:40;0.50;99.90
14006;DHT22;7078;51.542;7.314;2022-11-20T05:51:08;1.60;99.90
14006;DHT22;7078;51.542;7.314;2022-11-20T05:53:35;2.30;99.90
14006;DHT22;7078;51.542;7.314;2022-11-20T05:56:12;2.60;99.90
14006;DHT22;7078;51.542;7.314;2022-11-20T05:58:39;2.60;99.90
14006;DHT22;7078;51.542;7.314;2022-11-20T06:03:30;2.70;99.90
14006;DHT22;7078;51.542;7.314;2022-11-20T06:05:56;2.10;99.90
14006;DHT22;7078;51.542;7.314;2022-11-20T06:08:21;1.60;99.90
14006;DHT22;7078;51.542;7.314;2022-11-20T06:10:47;1.10;99.90
14006;DHT22;7078;51.542;7.314;2022-11-20T06:13:12;0.90;99.90
14006;DHT22;7078;51.542;7.314;2022-11-20T06:15:38;0.30;99.90
14006;DHT22;7078;51.542;7.314;2022-11-20T06:18:03;0.10;99.90
14006;DHT22;7078;51.542;7.314;2022-11-20T06:20:29;-0.10;99.90
14006;DHT22;7078;51.542;7.314;2022-11-20T06:22:54;-0.20;99.90
14006;DHT22;7078;51.542;7.314;2022-11-20T06:25:20;-0.30;99.90
14006;DHT22;7078;51.542;7.314;2022-11-20T06:27:45;-0.40;99.90
14006;DHT22;7078;51.542;7.314;2022-11-20T06:30:11;-0.50;99.90
14006;DHT22;7078;51.542;7.314;2022-11-20T06:32:37;-0.60;99.90
14006;DHT22;7078;51.542;7.314;2022-11-20T06:35:03;-0.70;99.90
14006;DHT22;7078;51.542;7.314;2022-11-20T06:37:29;-0.70;99.90
14006;DHT22;7078;51.542;7.314;2022-11-20T06:39:54;-0.70;99.90
14006;DHT22;7078;51.542;7.314;2022-11-20T06:42:20;-0.70;99.90
14006;DHT22;7078;51.542;7.314;2022-11-20T06:44:45;-0.80;99.90
14006;DHT22;7078;51.542;7.314;2022-11-20T06:47:11;-0.80;99.90
14006;DHT22;7078;51.542;7.314;2022-11-20T06:49:36;-0.80;99.90
14006;DHT22;7078;51.542;7.314;2022-11-20T06:52:04;-0.90;99.90
14006;DHT22;7078;51.542;7.314;2022-11-20T06:54:29;-0.90;99.90
14006;DHT22;7078;51.542;7.314;2022-11-20T06:56:55;-0.90;99.90
14006;DHT22;7078;51.542;7.314;2022-11-20T06:59:20;-0.90;99.90
14006;DHT22;7078;51.542;7.314;2022-11-20T07:01:46;-1.00;99.90
14006;DHT22;7078;51.542;7.314;2022-11-20T07:04:12;-1.00;99.90
14006;DHT22;7078;51.542;7.314;2022-11-20T07:06:37;-1.00;99.90
14006;DHT22;7078;51.542;7.314;2022-11-20T07:09:03;-1.00;99.90
14006;DHT22;7078;51.542;7.314;2022-11-20T07:11:28;-1.00;99.90
14006;DHT22;7078;51.542;7.314;2022-11-20T07:13:54;-1.00;99.90
14006;DHT22;7078;51.542;7.314;2022-11-20T07:16:19;-1.00;99.90
14006;DHT22;7078;51.542;7.314;2022-11-20T07:18:45;-1.00;99.90
14006;DHT22;7078;51.542;7.314;2022-11-20T07:21:11;-1.00;99.90
14006;DHT22;7078;51.542;7.314;2022-11-20T07:23:37;-1.00;99.90
14006;DHT22;7078;51.542;7.314;2022-11-20T07:26:07;-1.00;99.90
14006;DHT22;7078;51.542;7.314;2022-11-20T07:28:32;-1.00;99.90
14006;DHT22;7078;51.542;7.314;2022-11-20T07:30:58;-1.00;99.90
14006;DHT22;7078;51.542;7.314;2022-11-20T07:33:24;-0.90;99.90
14006;DHT22;7078;51.542;7.314;2022-11-20T07:35:51;-0.90;99.90
14006;DHT22;7078;51.542;7.314;2022-11-20T07:38:16;-0.90;99.90
14006;DHT22;7078;51.542;7.314;2022-11-20T07:40:42;-0.90;99.90
14006;DHT22;7078;51.542;7.314;2022-11-20T07:43:07;-0.80;99.90
14006;DHT22;7078;51.542;7.314;2022-11-20T07:45:33;-0.80;99.90
14006;DHT22;7078;51.542;7.314;2022-11-20T07:47:59;-0.70;99.90
14006;DHT22;7078;51.542;7.314;2022-11-20T07:50:24;-0.70;99.90
14006;DHT22;7078;51.542;7.314;2022-11-20T07:52:50;-0.70;99.90
14006;DHT22;7078;51.542;7.314;2022-11-20T07:55:16;-0.70;99.90
14006;DHT22;7078;51.542;7.314;2022-11-20T07:57:42;-0.60;99.90
14006;DHT22;7078;51.542;7.314;2022-11-20T08:00:09;-0.60;99.90
14006;DHT22;7078;51.542;7.314;2022-11-20T08:02:42;-0.50;99.90
14006;DHT22;7078;51.542;7.314;2022-11-20T08:05:09;-0.50;99.90
14006;DHT22;7078;51.542;7.314;2022-11-20T08:07:41;-0.50;99.90
14006;DHT22;7078;51.542;7.314;2022-11-20T08:10:09;-0.40;99.90
14006;DHT22;7078;51.542;7.314;2022-11-20T08:12:35;-0.40;99.90
14006;DHT22;7078;51.542;7.314;2022-11-20T08:15:19;-0.20;99.90
14006;DHT22;7078;51.542;7.314;2022-11-20T08:17:45;-0.20;99.90
14006;DHT22;7078;51.542;7.314;2022-11-20T08:20:10;-0.10;99.90
14006;DHT22;7078;51.542;7.314;2022-11-20T08:22:36;0.00;99.90
14006;DHT22;7078;51.542;7.314;2022-11-20T08:25:01;0.10;99.90
14006;DHT22;7078;51.542;7.314;2022-11-20T08:27:27;0.10;99.90
14006;DHT22;7078;51.542;7.314;2022-11-20T08:29:53;0.20;99.90
14006;DHT22;7078;51.542;7.314;2022-11-20T08:32:18;0.30;99.90
14006;DHT22;7078;51.542;7.314;2022-11-20T08:34:44;0.40;99.90
14006;DHT22;7078;51.542;7.314;2022-11-20T08:37:09;0.40;99.90
14006;DHT22;7078;51.542;7.314;2022-11-20T08:39:35;0.50;99.90
14006;DHT22;7078;51.542;7.314;2022-11-20T08:42:00;0.60;99.90
14006;DHT22;7078;51.542;7.314;2022-11-20T08:44:26;0.70;99.90
14006;DHT22;7078;51.542;7.314;2022-11-20T08:46:52;0.80;99.90
14006;DHT22;7078;51.542;7.314;2022-11-20T08:49:17;0.90;99.90
14006;DHT22;7078;51.542;7.314;2022-11-20T08:51:43;1.00;99.90
14006;DHT22;7078;51.542;7.314;2022-11-20T08:54:08;1.10;99.90
14006;DHT22;7078;51.542;7.314;2022-11-20T08:56:34;1.20;99.90
14006;DHT22;7078;51.542;7.314;2022-11-20T08:59:00;1.30;99.90
14006;DHT22;7078;51.542;7.314;2022-11-20T09:01:26;1.40;99.90
14006;DHT22;7078;51.542;7.314;2022-11-20T09:03:52;1.50;99.90
14006;DHT22;7078;51.542;7.314;2022-11-20T09:06:17;1.50;99.90
14006;DHT22;7078;51.542;7.314;2022-11-20T09:08:43;1.70;99.90
14006;DHT22;7078;51.542;7.314;2022-11-20T09:11:09;1.80;99.90
14006;DHT22;7078;51.542;7.314;2022-11-20T09:13:36;1.90;99.90
14006;DHT22;7078;51.542;7.314;2022-11-20T09:16:04;2.00;99.90
14006;DHT22;7078;51.542;7.314;2022-11-20T09:18:31;2.10;99.90
14006;DHT22;7078;51.542;7.314;2022-11-20T09:20:58;2.20;99.90
14006;DHT22;7078;51.542;7.314;2022-11-20T09:23:25;2.20;99.90
14006;DHT22;7078;51.542;7.314;2022-11-20T09:25:50;2.40;99.90
14006;DHT22;7078;51.542;7.314;2022-11-20T09:28:16;2.50;99.90
14006;DHT22;7078;51.542;7.314;2022-11-20T09:30:44;2.70;99.90
14006;DHT22;7078;51.542;7.314;2022-11-20T09:33:09;2.70;99.90
14006;DHT22;7078;51.542;7.314;2022-11-20T09:35:35;2.90;99.90
14006;DHT22;7078;51.542;7.314;2022-11-20T09:38:06;2.90;99.90
14006;DHT22;7078;51.542;7.314;2022-11-20T09:40:34;3.10;99.90
14006;DHT22;7078;51.542;7.314;2022-11-20T09:48:48;3.30;99.90
14006;DHT22;7078;51.542;7.314;2022-11-20T09:51:40;3.40;99.90
14006;DHT22;7078;51.542;7.314;2022-11-20T09:54:33;3.50;99.90
14006;DHT22;7078;51.542;7.314;2022-11-20T09:57:10;3.50;99.90
14006;DHT22;7078;51.542;7.314;2022-11-20T09:59:46;3.60;99.90
14006;DHT22;7078;51.542;7.314;2022-11-20T10:02:26;3.70;99.90
14006;DHT22;7078;51.542;7.314;2022-11-20T10:05:02;3.80;99.90
14006;DHT22;7078;51.542;7.314;2022-11-20T10:10:18;3.90;99.90
14006;DHT22;7078;51.542;7.314;2022-11-20T10:16:11;4.10;99.90
14006;DHT22;7078;51.542;7.314;2022-11-20T10:27:03;4.30;99.90
14006;DHT22;7078;51.542;7.314;2022-11-20T10:29:37;4.30;99.90
14006;DHT22;7078;51.542;7.314;2022-11-20T10:32:18;4.40;99.90
14006;DHT22;7078;51.542;7.314;2022-11-20T10:35:59;4.40;99.90
14006;DHT22;7078;51.542;7.314;2022-11-20T10:37:58;4.50;99.90
14006;DHT22;7078;51.542;7.314;2022-11-20T10:40:34;4.60;99.90
14006;DHT22;7078;51.542;7.314;2022-11-20T10:43:04;4.50;99.90
14006;DHT22;7078;51.542;7.314;2022-11-20T10:45:53;4.50;99.90
14006;DHT22;7078;51.542;7.314;2022-11-20T10:48:25;4.60;99.90
14006;DHT22;7078;51.542;7.314;2022-11-20T10:53:51;4.70;99.90
14006;DHT22;7078;51.542;7.314;2022-11-20T10:56:44;4.70;99.90
14006;DHT22;7078;51.542;7.314;2022-11-20T11:02:23;4.90;99.90
14006;DHT22;7078;51.542;7.314;2022-11-20T11:04:53;5.00;99.90
14006;DHT22;7078;51.542;7.314;2022-11-20T11:07:40;5.10;99.90
14006;DHT22;7078;51.542;7.314;2022-11-20T11:12:44;5.10;99.90
14006;DHT22;7078;51.542;7.314;2022-11-20T11:15:14;5.10;99.90
14006;DHT22;7078;51.542;7.314;2022-11-20T11:17:46;5.10;99.90
14006;DHT22;7078;51.542;7.314;2022-11-20T11:20:16;5.20;99.90
14006;DHT22;7078;51.542;7.314;2022-11-20T11:22:45;5.20;99.90
14006;DHT22;7078;51.542;7.314;2022-11-20T11:25:21;5.20;99.90
14006;DHT22;7078;51.542;7.314;2022-11-20T11:27:47;5.10;99.90
14006;DHT22;7078;51.542;7.314;2022-11-20T11:30:16;5.10;99.90
14006;DHT22;7078;51.542;7.314;2022-11-20T11:32:42;5.10;99.90
14006;DHT22;7078;51.542;7.314;2022-11-20T11:35:27;5.20;99.90
14006;DHT22;7078;51.542;7.314;2022-11-20T11:38:02;5.20;99.90
14006;DHT22;7078;51.542;7.314;2022-11-20T11:40:32;5.30;99.90
14006;DHT22;7078;51.542;7.314;2022-11-20T11:43:01;5.30;99.90
14006;DHT22;7078;51.542;7.314;2022-11-20T11:45:28;5.40;99.90
14006;DHT22;7078;51.542;7.314;2022-11-20T11:47:56;5.40;99.90
14006;DHT22;7078;51.542;7.314;2022-11-20T11:50:27;5.40;99.90
14006;DHT22;7078;51.542;7.314;2022-11-20T11:53:13;5.40;99.90
14006;DHT22;7078;51.542;7.314;2022-11-20T11:56:14;5.50;99.90
14006;DHT22;7078;51.542;7.314;2022-11-20T11:58:52;5.60;99.90
14006;DHT22;7078;51.542;7.314;2022-11-20T12:04:17;5.60;99.90
14006;DHT22;7078;51.542;7.314;2022-11-20T12:06:51;5.60;99.90
14006;DHT22;7078;51.542;7.314;2022-11-20T12:09:18;5.70;99.90
14006;DHT22;7078;51.542;7.314;2022-11-20T12:11:51;5.80;99.90
14006;DHT22;7078;51.542;7.314;2022-11-20T12:14:19;5.90;99.90
14006;DHT22;7078;51.542;7.314;2022-11-20T12:16:49;6.00;99.90
14006;DHT22;7078;51.542;7.314;2022-11-20T12:19:15;6.00;99.90
14006;DHT22;7078;51.542;7.314;2022-11-20T12:22:00;6.00;99.90
14006;DHT22;7078;51.542;7.314;2022-11-20T12:30:18;5.70;99.90
14006;DHT22;7078;51.542;7.314;2022-11-20T12:44:29;5.90;99.90
14006;DHT22;7078;51.542;7.314;2022-11-20T12:53:04;5.80;99.90
14006;DHT22;7078;51.542;7.314;2022-11-20T13:00:54;5.60;99.90
14006;DHT22;7078;51.542;7.314;2022-11-20T13:03:46;5.50;99.90
14006;DHT22;7078;51.542;7.314;2022-11-20T13:06:18;5.40;99.90
14006;DHT22;7078;51.542;7.314;2022-11-20T13:08:55;5.30;99.90
14006;DHT22;7078;51.542;7.314;2022-11-20T13:11:31;5.30;99.90
14006;DHT22;7078;51.542;7.314;2022-11-20T13:19:56;5.10;99.90
14006;DHT22;7078;51.542;7.314;2022-11-20T13:22:45;5.00;99.90
14006;DHT22;7078;51.542;7.314;2022-11-20T13:25:22;5.00;99.90
14006;DHT22;7078;51.542;7.314;2022-11-20T13:27:49;5.00;99.90
14006;DHT22;7078;51.542;7.314;2022-11-20T13:30:17;5.00;99.90
14006;DHT22;7078;51.542;7.314;2022-11-20T13:33:07;5.00;99.90
14006;DHT22;7078;51.542;7.314;2022-11-20T13:35:40;5.00;99.90
14006;DHT22;7078;51.542;7.314;2022-11-20T13:40:33;5.10;99.90
14006;DHT22;7078;51.542;7.314;2022-11-20T13:45:58;5.10;99.90
14006;DHT22;7078;51.542;7.314;2022-11-20T13:48:26;5.20;99.90
14006;DHT22;7078;51.542;7.314;2022-11-20T14:01:50;5.20;99.90
14006;DHT22;7078;51.542;7.314;2022-11-20T14:04:20;5.20;99.90
14006;DHT22;7078;51.542;7.314;2022-11-20T14:06:49;5.20;99.90
14006;DHT22;7078;51.542;7.314;2022-11-20T14:09:29;5.10;99.90
14006;DHT22;7078;51.542;7.314;2022-11-20T14:11:54;5.10;99.90
14006;DHT22;7078;51.542;7.314;2022-11-20T14:14:23;5.20;99.90
14006;DHT22;7078;51.542;7.314;2022-11-20T14:16:51;5.10;99.90
14006;DHT22;7078;51.542;7.314;2022-11-20T14:21:49;5.10;99.90
14006;DHT22;7078;51.542;7.314;2022-11-20T14:24:19;5.00;99.90
14006;DHT22;7078;51.542;7.314;2022-11-20T14:26:46;4.90;99.90
14006;DHT22;7078;51.542;7.314;2022-11-20T14:29:17;4.90;99.90
14006;DHT22;7078;51.542;7.314;2022-11-20T14:31:47;4.90;99.90
14006;DHT22;7078;51.542;7.314;2022-11-20T14:34:20;4.80;99.90
14006;DHT22;7078;51.542;7.314;2022-11-20T14:36:46;4.80;99.90
14006;DHT22;7078;51.542;7.314;2022-11-20T14:39:19;4.70;99.90
14006;DHT22;7078;51.542;7.314;2022-11-20T14:41:52;4.70;99.90
14006;DHT22;7078;51.542;7.314;2022-11-20T14:44:23;4.70;99.90
14006;DHT22;7078;51.542;7.314;2022-11-20T14:46:50;4.70;99.90
14006;DHT22;7078;51.542;7.314;2022-11-20T14:49:16;4.70;99.90
14006;DHT22;7078;51.542;7.314;2022-11-20T14:51:42;4.70;99.90
14006;DHT22;7078;51.542;7.314;2022-11-20T14:54:15;4.60;99.90
14006;DHT22;7078;51.542;7.314;2022-11-20T14:56:42;4.60;99.90
14006;DHT22;7078;51.542;7.314;2022-11-20T14:59:26;4.60;99.90
14006;DHT22;7078;51.542;7.314;2022-11-20T15:02:12;4.60;99.90
14006;DHT22;7078;51.542;7.314;2022-11-20T15:04:49;4.60;99.90
14006;DHT22;7078;51.542;7.314;2022-11-20T15:07:30;4.60;99.90
14006;DHT22;7078;51.542;7.314;2022-11-20T15:10:07;4.70;99.90
14006;DHT22;7078;51.542;7.314;2022-11-20T15:12:36;4.60;99.90
14006;DHT22;7078;51.542;7.314;2022-11-20T15:15:03;4.60;99.90
14006;DHT22;7078;51.542;7.314;2022-11-20T15:17:31;4.50;99.90
14006;DHT22;7078;51.542;7.314;2022-11-20T15:19:58;4.50;99.90
14006;DHT22;7078;51.542;7.314;2022-11-20T15:22:25;4.40;99.90
14006;DHT22;7078;51.542;7.314;2022-11-20T15:24:50;4.40;99.90
14006;DHT22;7078;51.542;7.314;2022-11-20T15:27:16;4.40;99.90
14006;DHT22;7078;51.542;7.314;2022-11-20T15:29:42;4.30;99.90
14006;DHT22;7078;51.542;7.314;2022-11-20T15:32:08;4.30;99.90
14006;DHT22;7078;51.542;7.314;2022-11-20T15:34:34;4.30;99.90
14006;DHT22;7078;51.542;7.314;2022-11-20T15:36:59;4.30;99.90
14006;DHT22;7078;51.542;7.314;2022-11-20T15:39:25;4.30;99.90
14006;DHT22;7078;51.542;7.314;2022-11-20T15:41:50;4.40;99.90
14006;DHT22;7078;51.542;7.314;2022-11-20T15:44:16;4.40;99.90
14006;DHT22;7078;51.542;7.314;2022-11-20T15:46:42;4.30;99.90
14006;DHT22;7078;51.542;7.314;2022-11-20T15:49:15;4.30;99.90
14006;DHT22;7078;51.542;7.314;2022-11-20T15:51:43;4.20;99.90
14006;DHT22;7078;51.542;7.314;2022-11-20T15:54:19;4.20;99.90
14006;DHT22;7078;51.542;7.314;2022-11-20T15:56:48;4.20;99.90
14006;DHT22;7078;51.542;7.314;2022-11-20T15:59:14;4.20;99.90
14006;DHT22;7078;51.542;7.314;2022-11-20T16:01:41;4.20;99.90
14006;DHT22;7078;51.542;7.314;2022-11-20T16:04:11;4.20;99.90
14006;DHT22;7078;51.542;7.314;2022-11-20T16:06:37;4.20;99.90
14006;DHT22;7078;51.542;7.314;2022-11-20T16:09:04;4.20;99.90
14006;DHT22;7078;51.542;7.314;2022-11-20T16:11:30;4.10;99.90
14006;DHT22;7078;51.542;7.314;2022-11-20T16:13:55;4.10;99.90
14006;DHT22;7078;51.542;7.314;2022-11-20T16:16:40;4.10;99.90
14006;DHT22;7078;51.542;7.314;2022-11-20T16:19:11;4.10;99.90
14006;DHT22;7078;51.542;7.314;2022-11-20T16:21:37;4.10;99.90
14006;DHT22;7078;51.542;7.314;2022-11-20T16:24:06;4.10;99.90
14006;DHT22;7078;51.542;7.314;2022-11-20T16:26:32;4.10;99.90
14006;DHT22;7078;51.542;7.314;2022-11-20T16:28:59;4.10;99.90
14006;DHT22;7078;51.542;7.314;2022-11-20T16:31:25;4.10;99.90
14006;DHT22;7078;51.542;7.314;2022-11-20T16:33:52;4.10;99.90
14006;DHT22;7078;51.542;7.314;2022-11-20T16:36:19;4.10;99.90
14006;DHT22;7078;51.542;7.314;2022-11-20T16:38:45;4.10;99.90
14006;DHT22;7078;51.542;7.314;2022-11-20T16:41:10;4.10;99.90
14006;DHT22;7078;51.542;7.314;2022-11-20T16:43:47;4.10;99.90
14006;DHT22;7078;51.542;7.314;2022-11-20T16:46:17;4.10;99.90
14006;DHT22;7078;51.542;7.314;2022-11-20T16:48:43;4.10;99.90
14006;DHT22;7078;51.542;7.314;2022-11-20T16:51:10;4.10;99.90
14006;DHT22;7078;51.542;7.314;2022-11-20T16:53:36;4.00;99.90
14006;DHT22;7078;51.542;7.314;2022-11-20T16:56:28;4.00;99.90
14006;DHT22;7078;51.542;7.314;2022-11-20T16:58:55;4.10;99.90
14006;DHT22;7078;51.542;7.314;2022-11-20T17:01:23;4.10;99.90
14006;DHT22;7078;51.542;7.314;2022-11-20T17:03:58;4.10;99.90
14006;DHT22;7078;51.542;7.314;2022-11-20T17:06:30;4.10;99.90
14006;DHT22;7078;51.542;7.314;2022-11-20T17:08:56;4.10;99.90
14006;DHT22;7078;51.542;7.314;2022-11-20T17:11:22;4.10;99.90
14006;DHT22;7078;51.542;7.314;2022-11-20T17:13:48;4.10;99.90
14006;DHT22;7078;51.542;7.314;2022-11-20T17:16:19;4.10;99.90
14006;DHT22;7078;51.542;7.314;2022-11-20T17:18:45;4.20;99.90
14006;DHT22;7078;51.542;7.314;2022-11-20T17:21:11;4.20;99.90
14006;DHT22;7078;51.542;7.314;2022-11-20T17:23:42;4.20;99.90
14006;DHT22;7078;51.542;7.314;2022-11-20T17:26:12;4.20;99.90
14006;DHT22;7078;51.542;7.314;2022-11-20T17:28:39;4.20;99.90
14006;DHT22;7078;51.542;7.314;2022-11-20T17:31:10;4.20;99.90
14006;DHT22;7078;51.542;7.314;2022-11-20T17:33:37;4.20;99.90